createdAt,value
2019-03-04T00:01:03.985Z,68.70
2019-03-04T00:03:31.802Z,67.90
2019-03-04T00:05:59.502Z,67.30
2019-03-04T00:08:27.509Z,67.20
2019-03-04T00:10:56.126Z,67.00
2019-03-04T00:13:24.277Z,66.80
2019-03-04T00:15:52.027Z,66.40
2019-03-04T00:18:20.674Z,65.70
2019-03-04T00:20:48.315Z,65.20
2019-03-04T00:23:16.297Z,65.80
2019-03-04T00:25:43.958Z,64.30
2019-03-04T00:28:11.603Z,64.00
2019-03-04T00:30:40.393Z,63.80
2019-03-04T00:33:08.012Z,63.60
2019-03-04T00:35:35.642Z,63.40
2019-03-04T00:38:04.364Z,63.10
2019-03-04T00:40:31.952Z,62.90
2019-03-04T00:42:59.786Z,62.80
2019-03-04T00:45:27.453Z,62.80
2019-03-04T00:47:55.232Z,62.70
2019-03-04T00:50:22.914Z,62.30
2019-03-04T00:52:50.640Z,62.20
2019-03-04T00:55:18.423Z,62.20
2019-03-04T00:57:46.173Z,62.20
2019-03-04T01:00:17.040Z,61.80
2019-03-04T01:02:44.711Z,61.90
2019-03-04T01:05:12.660Z,61.70
2019-03-04T01:07:40.327Z,61.90
2019-03-04T01:10:11.674Z,61.90
2019-03-04T01:12:39.365Z,62.00
2019-03-04T01:15:09.948Z,62.40
2019-03-04T01:17:37.780Z,62.60
2019-03-04T01:20:06.437Z,62.70
2019-03-04T01:22:34.152Z,63.90
2019-03-04T01:25:01.845Z,65.10
2019-03-04T01:27:29.486Z,66.20
2019-03-04T01:29:57.486Z,66.00
2019-03-04T01:32:25.222Z,66.50
2019-03-04T01:34:52.922Z,66.00
2019-03-04T01:37:20.591Z,65.60
2019-03-04T01:39:48.295Z,65.60
2019-03-04T01:42:15.938Z,65.10
2019-03-04T01:44:43.668Z,64.30
2019-03-04T01:47:11.310Z,64.00
2019-03-04T01:49:38.991Z,63.50
2019-03-04T01:52:06.638Z,63.50
2019-03-04T01:54:34.267Z,63.40
2019-03-04T01:57:02.843Z,63.50
2019-03-04T01:59:30.525Z,63.70
2019-03-04T02:01:58.220Z,63.60
2019-03-04T02:04:25.888Z,63.70
2019-03-04T02:06:53.592Z,63.40
2019-03-04T02:09:21.394Z,63.50
2019-03-04T02:11:49.120Z,63.30
2019-03-04T02:14:16.731Z,63.30
2019-03-04T02:16:44.352Z,63.30
2019-03-04T02:19:12.068Z,63.40
2019-03-04T02:21:39.804Z,63.40
2019-03-04T02:24:22.113Z,63.30
2019-03-04T02:26:49.831Z,63.50
2019-03-04T02:29:17.455Z,63.70
2019-03-04T02:31:45.122Z,63.90
2019-03-04T02:34:12.787Z,63.90
2019-03-04T02:36:40.478Z,64.20
2019-03-04T02:39:08.139Z,64.40
2019-03-04T02:41:37.326Z,64.30
2019-03-04T02:44:07.890Z,64.70
2019-03-04T02:46:35.439Z,65.50
2019-03-04T02:49:03.496Z,65.80
2019-03-04T02:51:31.087Z,65.90
2019-03-04T02:53:58.726Z,66.10
2019-03-04T02:56:26.369Z,65.50
2019-03-04T02:58:54.311Z,65.00
2019-03-04T03:01:22.045Z,64.30
2019-03-04T03:03:49.986Z,63.80
2019-03-04T03:06:17.837Z,64.00
2019-03-04T03:08:45.470Z,64.20
2019-03-04T03:11:14.051Z,64.30
2019-03-04T03:13:41.655Z,64.60
2019-03-04T03:16:09.247Z,64.50
2019-03-04T03:18:36.982Z,64.50
2019-03-04T03:21:04.610Z,64.40
2019-03-04T03:23:32.276Z,64.70
2019-03-04T03:25:59.877Z,65.10
2019-03-04T03:28:27.554Z,65.50
2019-03-04T03:30:55.129Z,65.80
2019-03-04T03:33:22.755Z,66.40
2019-03-04T03:35:50.408Z,66.70
2019-03-04T03:38:18.053Z,66.60
2019-03-04T03:40:45.733Z,66.50
2019-03-04T03:43:13.287Z,66.60
2019-03-04T03:45:40.889Z,66.60
2019-03-04T03:48:08.704Z,66.70
2019-03-04T03:50:36.343Z,66.90
2019-03-04T03:53:03.937Z,66.50
2019-03-04T03:55:31.672Z,66.70
2019-03-04T03:57:59.337Z,66.50
2019-03-04T04:00:26.988Z,66.60
2019-03-04T04:02:54.551Z,66.40
2019-03-04T04:05:22.211Z,66.50
2019-03-04T04:07:49.812Z,66.80
2019-03-04T04:10:17.395Z,67.20
2019-03-04T04:12:45.129Z,67.50
2019-03-04T04:15:12.950Z,67.10
2019-03-04T04:17:40.584Z,66.90
2019-03-04T04:20:08.510Z,66.70
2019-03-04T04:22:36.302Z,66.60
2019-03-04T04:25:04.054Z,66.80
2019-03-04T04:27:31.780Z,66.80
2019-03-04T04:29:59.457Z,67.10
2019-03-04T04:32:27.081Z,67.90
2019-03-04T04:34:55.665Z,67.60
2019-03-04T04:37:23.313Z,68.30
2019-03-04T04:39:50.995Z,68.00
2019-03-04T04:42:18.655Z,67.60
2019-03-04T04:44:46.283Z,67.30
2019-03-04T04:47:13.949Z,67.70
2019-03-04T04:49:41.460Z,67.40
2019-03-04T04:52:09.102Z,67.00
2019-03-04T04:54:36.657Z,67.10
2019-03-04T04:57:04.330Z,66.70
2019-03-04T04:59:31.931Z,66.30
2019-03-04T05:01:59.537Z,65.90
2019-03-04T05:04:27.185Z,65.40
2019-03-04T05:06:54.931Z,65.00
2019-03-04T05:09:22.546Z,64.50
2019-03-04T05:11:51.041Z,64.20
2019-03-04T05:14:18.655Z,64.20
2019-03-04T05:16:46.304Z,63.80
2019-03-04T05:19:13.975Z,64.10
2019-03-04T05:21:41.659Z,63.80
2019-03-04T05:24:09.322Z,63.60
2019-03-04T05:26:37.095Z,63.40
2019-03-04T05:29:04.885Z,63.10
2019-03-04T05:31:32.534Z,63.00
2019-03-04T05:34:00.146Z,63.00
2019-03-04T05:36:27.837Z,63.00
2019-03-04T05:38:55.496Z,63.70
2019-03-04T05:41:23.089Z,61.60
2019-03-04T05:43:52.630Z,61.30
2019-03-04T05:46:20.120Z,61.10
2019-03-04T05:48:47.797Z,60.60
2019-03-04T05:51:15.468Z,60.60
2019-03-04T05:53:43.159Z,60.30
2019-03-04T05:56:10.747Z,60.20
2019-03-04T05:58:38.351Z,60.10
2019-03-04T06:01:19.343Z,59.90
2019-03-04T06:03:47.782Z,59.60
2019-03-04T06:06:18.019Z,59.20
2019-03-04T06:08:46.688Z,58.80
2019-03-04T06:11:14.268Z,58.90
2019-03-04T06:13:41.850Z,58.80
2019-03-04T06:16:09.659Z,59.20
2019-03-04T06:18:37.289Z,58.70
2019-03-04T06:21:05.146Z,58.40
2019-03-04T06:23:32.902Z,58.30
2019-03-04T06:26:00.742Z,58.20
2019-03-04T06:28:28.399Z,58.70
2019-03-04T06:30:56.008Z,58.50
2019-03-04T06:33:23.659Z,58.40
2019-03-04T06:35:51.291Z,58.60
2019-03-04T06:38:19.050Z,59.30
2019-03-04T06:40:46.788Z,60.80
2019-03-04T06:43:14.394Z,61.80
2019-03-04T06:45:42.039Z,64.00
2019-03-04T06:48:09.590Z,63.50
2019-03-04T06:50:51.468Z,65.80
2019-03-04T06:53:49.435Z,66.50
2019-03-04T06:56:30.231Z,68.80
2019-03-04T06:59:04.411Z,68.00
2019-03-04T07:01:42.506Z,67.50
2019-03-04T07:04:32.095Z,66.90
2019-03-04T07:07:00.512Z,65.50
2019-03-04T07:09:28.329Z,66.00
2019-03-04T07:11:56.107Z,65.60
2019-03-04T07:14:23.718Z,64.00
2019-03-04T07:16:52.069Z,63.90
2019-03-04T07:19:30.136Z,63.20
2019-03-04T07:21:58.201Z,62.80
2019-03-04T07:24:25.903Z,62.20
2019-03-04T07:26:53.852Z,60.90
2019-03-04T07:29:21.504Z,60.90
2019-03-04T07:31:49.275Z,59.30
2019-03-04T07:34:17.028Z,59.40
2019-03-04T07:36:44.703Z,59.50
2019-03-04T07:39:13.924Z,59.50
2019-03-04T07:41:52.494Z,59.40
2019-03-04T07:44:21.115Z,59.00
2019-03-04T07:46:48.644Z,59.00
2019-03-04T07:49:16.329Z,58.80
2019-03-04T07:51:44.000Z,58.40
2019-03-04T07:54:11.662Z,57.80
2019-03-04T07:56:39.281Z,57.30
2019-03-04T07:59:07.247Z,56.60
2019-03-04T08:01:34.945Z,56.50
2019-03-04T08:04:02.987Z,56.30
2019-03-04T08:06:30.753Z,56.30
2019-03-04T08:09:18.143Z,56.20
2019-03-04T08:12:13.371Z,55.90
2019-03-04T08:14:41.037Z,56.00
2019-03-04T08:17:09.873Z,55.30
2019-03-04T08:19:37.723Z,55.60
2019-03-04T08:22:05.337Z,55.10
2019-03-04T08:24:33.312Z,55.00
2019-03-04T08:27:00.914Z,54.20
2019-03-04T08:29:28.574Z,53.90
2019-03-04T08:31:56.217Z,53.60
2019-03-04T08:34:30.828Z,53.30
2019-03-04T08:36:53.542Z,52.90
2019-03-04T08:39:22.892Z,52.90
2019-03-04T08:41:50.859Z,52.60
2019-03-04T08:44:18.826Z,53.80
2019-03-04T08:46:46.467Z,53.50
2019-03-04T08:49:14.211Z,53.80
2019-03-04T08:51:47.923Z,55.00
2019-03-04T08:54:15.726Z,75.90
2019-03-04T08:56:43.848Z,91.20
2019-03-04T08:59:11.558Z,92.70
2019-03-04T09:01:39.385Z,94.00
2019-03-04T09:04:07.372Z,94.10
2019-03-04T09:06:35.334Z,93.20
2019-03-04T09:09:06.692Z,93.00
2019-03-04T09:11:49.114Z,93.80
2019-03-04T09:14:19.987Z,93.90
2019-03-04T09:16:47.720Z,93.80
2019-03-04T09:19:15.490Z,93.10
2019-03-04T09:21:43.291Z,93.00
2019-03-04T09:24:12.078Z,93.30
2019-03-04T09:26:39.863Z,93.30
2019-03-04T09:29:07.591Z,93.20
2019-03-04T09:32:15.406Z,93.70
2019-03-04T09:34:43.140Z,93.40
2019-03-04T09:37:11.650Z,92.50
2019-03-04T09:39:39.345Z,90.60
2019-03-04T09:42:22.276Z,90.70
2019-03-04T09:44:49.928Z,88.80
2019-03-04T09:47:31.907Z,90.50
2019-03-04T09:50:01.587Z,90.00
2019-03-04T09:52:29.508Z,90.50
2019-03-04T09:54:57.359Z,90.40
2019-03-04T09:57:25.077Z,87.60
2019-03-04T09:59:53.025Z,85.50
2019-03-04T10:02:32.242Z,88.70
2019-03-04T10:05:40.699Z,84.50
2019-03-04T10:08:33.392Z,87.70
2019-03-04T10:11:36.849Z,88.10
2019-03-04T10:14:35.849Z,84.80
2019-03-04T10:17:49.135Z,83.70
2019-03-04T10:20:49.714Z,82.20
2019-03-04T10:24:14.855Z,83.20
2019-03-04T10:27:13.336Z,84.50
2019-03-04T10:30:23.065Z,83.70
2019-03-04T10:33:14.289Z,85.10
2019-03-04T10:36:07.067Z,84.60
2019-03-04T10:39:22.389Z,84.60
2019-03-04T10:42:42.196Z,83.60
2019-03-04T10:46:20.921Z,84.00
2019-03-04T10:48:48.807Z,81.70
2019-03-04T10:51:18.662Z,78.70
2019-03-04T10:53:46.320Z,79.40
2019-03-04T10:56:16.101Z,77.70
2019-03-04T10:58:44.294Z,77.80
2019-03-04T11:01:12.247Z,75.30
2019-03-04T11:03:40.380Z,72.60
2019-03-04T11:06:08.100Z,69.30
2019-03-04T11:08:35.797Z,68.10
2019-03-04T11:11:03.502Z,69.00
2019-03-04T11:13:31.179Z,69.10
2019-03-04T11:15:58.916Z,69.10
2019-03-04T11:18:26.860Z,68.60
2019-03-04T11:20:59.460Z,69.10
2019-03-04T11:23:27.914Z,67.90
2019-03-04T11:25:55.852Z,68.20
2019-03-04T11:28:24.302Z,68.90
2019-03-04T11:30:52.007Z,68.20
2019-03-04T11:33:19.927Z,67.00
2019-03-04T11:35:47.893Z,68.20
2019-03-04T11:38:55.635Z,65.90
2019-03-04T11:41:23.515Z,65.20
2019-03-04T11:43:51.323Z,64.90
2019-03-04T11:46:21.865Z,63.50
2019-03-04T11:48:49.738Z,62.00
2019-03-04T11:51:17.414Z,62.90
2019-03-04T11:53:45.826Z,61.90
2019-03-04T11:56:13.819Z,62.40
2019-03-04T11:59:04.459Z,62.50
2019-03-04T12:01:45.010Z,64.60
2019-03-04T12:04:15.666Z,59.50
2019-03-04T12:06:44.656Z,57.60
2019-03-04T12:09:16.180Z,55.40
2019-03-04T12:11:44.060Z,54.10
2019-03-04T12:14:14.608Z,53.30
2019-03-04T12:16:42.606Z,53.60
2019-03-04T12:19:10.315Z,54.50
2019-03-04T12:21:38.023Z,56.90
2019-03-04T12:24:06.090Z,57.20
2019-03-04T12:26:35.396Z,55.30
2019-03-04T12:29:03.250Z,54.30
2019-03-04T12:31:35.678Z,55.80
2019-03-04T12:34:03.376Z,54.20
2019-03-04T12:36:31.286Z,53.20
2019-03-04T12:38:59.317Z,54.10
2019-03-04T12:41:27.299Z,56.00
2019-03-04T12:43:54.992Z,58.50
2019-03-04T12:46:22.967Z,60.40
2019-03-04T12:48:50.965Z,63.30
2019-03-04T12:51:23.032Z,64.10
2019-03-04T12:53:48.695Z,66.00
2019-03-04T12:56:16.761Z,67.70
2019-03-04T12:58:44.785Z,70.30
2019-03-04T13:01:12.451Z,74.00
2019-03-04T13:03:40.290Z,76.30
2019-03-04T13:06:08.195Z,77.80
2019-03-04T13:08:35.995Z,79.90
2019-03-04T13:11:03.825Z,83.00
2019-03-04T13:13:33.073Z,83.70
2019-03-04T13:16:02.004Z,85.60
2019-03-04T13:18:29.951Z,88.60
2019-03-04T13:22:13.169Z,89.90
2019-03-04T13:24:41.205Z,90.90
2019-03-04T13:27:08.865Z,91.30
2019-03-04T13:29:36.578Z,90.70
2019-03-04T13:32:04.315Z,90.00
2019-03-04T13:34:32.096Z,86.50
2019-03-04T13:36:59.852Z,84.60
2019-03-04T13:39:32.690Z,89.80
2019-03-04T13:42:01.122Z,90.20
2019-03-04T13:44:28.751Z,90.80
2019-03-04T13:46:56.466Z,90.20
2019-03-04T13:49:24.121Z,89.70
2019-03-04T13:51:51.847Z,88.20
2019-03-04T13:54:19.648Z,88.50
2019-03-04T13:56:47.399Z,90.20
2019-03-04T13:59:16.883Z,86.70
2019-03-04T14:01:44.556Z,86.00
2019-03-04T14:04:18.079Z,86.50
2019-03-04T14:06:46.090Z,86.70
2019-03-04T14:09:16.768Z,85.70
2019-03-04T14:11:45.817Z,85.60
2019-03-04T14:14:13.676Z,85.50
2019-03-04T14:16:42.247Z,85.90
2019-03-04T14:19:10.060Z,86.30
2019-03-04T14:21:37.990Z,88.00
2019-03-04T14:24:05.720Z,88.60
2019-03-04T14:26:33.576Z,90.00
2019-03-04T14:29:01.267Z,89.40
2019-03-04T14:31:29.136Z,87.70
2019-03-04T14:33:57.031Z,86.90
2019-03-04T14:36:24.882Z,84.90
2019-03-04T14:38:53.699Z,82.80
2019-03-04T14:41:21.445Z,82.20
2019-03-04T14:43:49.094Z,81.00
2019-03-04T14:46:24.264Z,80.60
2019-03-04T14:48:52.245Z,80.70
2019-03-04T14:51:20.056Z,81.00
2019-03-04T14:53:47.918Z,80.00
2019-03-04T14:56:22.373Z,79.40
2019-03-04T14:58:45.610Z,79.60
2019-03-04T15:01:14.686Z,80.20
2019-03-04T15:03:42.970Z,80.40
2019-03-04T15:06:10.728Z,79.60
2019-03-04T15:08:38.515Z,79.60
2019-03-04T15:11:06.162Z,79.80
2019-03-04T15:13:33.986Z,79.20
2019-03-04T15:16:04.499Z,80.40
2019-03-04T15:18:32.920Z,81.50
2019-03-04T15:21:04.892Z,82.50
2019-03-04T15:23:32.715Z,86.90
2019-03-04T15:26:00.671Z,91.00
2019-03-04T15:28:28.727Z,92.00
2019-03-04T15:30:59.471Z,92.90
2019-03-04T15:33:28.325Z,92.60
2019-03-04T15:35:56.189Z,92.80
2019-03-04T15:38:23.909Z,93.30
2019-03-04T15:40:51.645Z,93.40
2019-03-04T15:43:20.620Z,93.60
2019-03-04T15:45:50.826Z,94.20
2019-03-04T15:48:21.697Z,94.00
2019-03-04T15:50:49.355Z,94.10
2019-03-04T15:53:17.068Z,93.90
2019-03-04T15:55:44.814Z,93.80
2019-03-04T15:58:12.718Z,93.60
2019-03-04T16:00:41.203Z,93.60
2019-03-04T16:03:09.059Z,93.50
2019-03-04T16:05:36.663Z,93.60
2019-03-04T16:08:07.813Z,94.00
2019-03-04T16:10:36.062Z,93.80
2019-03-04T16:13:04.387Z,92.90
2019-03-04T16:15:32.671Z,92.30
2019-03-04T16:18:00.866Z,91.90
2019-03-04T16:20:28.742Z,92.00
2019-03-04T16:22:56.488Z,91.10
2019-03-04T16:25:24.663Z,92.60
2019-03-04T16:28:00.214Z,92.10
2019-03-04T16:30:28.035Z,93.00
2019-03-04T16:32:55.674Z,92.30
2019-03-04T16:35:23.514Z,92.20
2019-03-04T16:37:51.174Z,92.60
2019-03-04T16:40:19.145Z,92.00
2019-03-04T16:42:46.915Z,91.10
2019-03-04T16:45:15.607Z,90.70
2019-03-04T16:47:43.435Z,88.70
2019-03-04T16:50:12.042Z,85.10
2019-03-04T16:52:40.131Z,84.20
2019-03-04T16:55:09.638Z,83.70
2019-03-04T16:57:37.598Z,83.40
2019-03-04T17:00:06.968Z,82.10
2019-03-04T17:02:36.418Z,82.70
2019-03-04T17:05:05.571Z,82.70
2019-03-04T17:07:33.792Z,81.30
2019-03-04T17:10:01.909Z,81.40
2019-03-04T17:12:30.166Z,80.90
2019-03-04T17:14:57.836Z,80.40
2019-03-04T17:17:26.047Z,81.20
2019-03-04T17:19:54.023Z,81.10
2019-03-04T17:22:21.765Z,80.50
2019-03-04T17:24:49.601Z,80.20
2019-03-04T17:27:17.300Z,80.30
2019-03-04T17:29:45.277Z,81.20
2019-03-04T17:32:13.205Z,81.10
2019-03-04T17:34:40.996Z,80.00
2019-03-04T17:37:08.853Z,79.80
2019-03-04T17:39:36.555Z,79.10
2019-03-04T17:42:04.970Z,78.90
2019-03-04T17:44:32.905Z,78.90
2019-03-04T17:47:00.827Z,79.10
2019-03-04T17:49:28.604Z,78.40
2019-03-04T17:51:57.407Z,78.80
2019-03-04T17:54:25.060Z,79.60
2019-03-04T17:56:58.293Z,78.40
2019-03-04T17:59:26.191Z,78.40
2019-03-04T18:01:53.959Z,78.70
2019-03-04T18:04:21.643Z,78.10
2019-03-04T18:06:49.881Z,78.50
2019-03-04T18:09:17.719Z,78.20
2019-03-04T18:11:45.473Z,78.40
2019-03-04T18:14:13.327Z,77.90
2019-03-04T18:16:41.122Z,77.80
2019-03-04T18:19:16.890Z,78.50
2019-03-04T18:21:44.759Z,78.50
2019-03-04T18:24:19.890Z,79.20
2019-03-04T18:26:59.818Z,79.40
2019-03-04T18:29:53.902Z,78.80
2019-03-04T18:33:08.720Z,79.10
2019-03-04T18:36:17.192Z,79.70
2019-03-04T18:39:13.824Z,79.00
2019-03-04T18:42:14.625Z,78.90
2019-03-04T18:45:16.732Z,79.20
2019-03-04T18:48:36.914Z,79.50
2019-03-04T18:51:04.860Z,79.60
2019-03-04T18:53:33.703Z,80.00
2019-03-04T18:56:01.368Z,80.30
2019-03-04T18:58:30.121Z,80.40
2019-03-04T19:00:57.883Z,80.40
2019-03-04T19:03:25.655Z,80.60
2019-03-04T19:05:53.551Z,80.80
2019-03-04T19:08:30.486Z,80.90
2019-03-04T19:10:58.401Z,80.90
2019-03-04T19:13:26.410Z,81.00
2019-03-04T19:15:54.227Z,81.10
2019-03-04T19:18:22.126Z,81.20
2019-03-04T19:20:51.609Z,81.30
2019-03-04T19:23:19.471Z,81.30
2019-03-04T19:25:48.389Z,82.30
2019-03-04T19:28:16.916Z,82.10
2019-03-04T19:30:44.948Z,81.90
2019-03-04T19:33:12.582Z,82.00
2019-03-04T19:35:40.357Z,82.00
2019-03-04T19:38:08.094Z,82.10
2019-03-04T19:40:36.190Z,82.30
2019-03-04T19:43:04.032Z,82.50
2019-03-04T19:45:31.661Z,82.30
2019-03-04T19:47:59.641Z,82.20
2019-03-04T19:50:27.378Z,81.90
2019-03-04T19:52:55.204Z,82.00
2019-03-04T19:55:23.128Z,82.10
2019-03-04T19:57:50.929Z,82.50
2019-03-04T20:00:20.080Z,82.60
2019-03-04T20:02:50.760Z,82.80
2019-03-04T20:05:19.242Z,82.70
2019-03-04T20:07:47.614Z,82.90
2019-03-04T20:10:16.197Z,83.50
2019-03-04T20:12:44.398Z,83.20
2019-03-04T20:15:18.749Z,83.10
2019-03-04T20:17:46.837Z,83.50
2019-03-04T20:20:14.935Z,83.90
2019-03-04T20:22:42.724Z,83.60
2019-03-04T20:25:12.486Z,83.80
2019-03-04T20:27:40.460Z,83.80
2019-03-04T20:30:09.625Z,84.00
2019-03-04T20:32:37.747Z,83.80
2019-03-04T20:35:07.216Z,83.70
2019-03-04T20:37:36.649Z,84.00
2019-03-04T20:40:05.946Z,84.10
2019-03-04T20:42:33.985Z,84.00
2019-03-04T20:45:01.748Z,84.10
2019-03-04T20:47:30.124Z,83.70
2019-03-04T20:49:57.824Z,83.40
2019-03-04T20:52:25.791Z,83.20
2019-03-04T20:54:53.882Z,83.40
2019-03-04T20:57:21.718Z,83.70
2019-03-04T20:59:50.060Z,83.60
2019-03-04T21:02:17.897Z,83.80
2019-03-04T21:04:45.519Z,83.90
2019-03-04T21:07:16.766Z,84.10
2019-03-04T21:09:44.543Z,83.90
2019-03-04T21:12:12.499Z,84.10
2019-03-04T21:14:40.360Z,84.10
2019-03-04T21:17:08.070Z,83.90
2019-03-04T21:19:35.900Z,84.10
2019-03-04T21:22:03.933Z,83.90
2019-03-04T21:24:34.322Z,83.90
2019-03-04T21:27:02.262Z,83.80
2019-03-04T21:30:05.758Z,83.90
2019-03-04T21:32:47.842Z,83.70
2019-03-04T21:35:57.653Z,83.70
2019-03-04T21:38:28.520Z,83.90
2019-03-04T21:41:28.097Z,83.50
2019-03-04T21:44:22.485Z,83.30
2019-03-04T21:47:20.941Z,83.50
2019-03-04T21:49:51.745Z,85.00
2019-03-04T21:52:50.628Z,86.80
2019-03-04T21:55:44.626Z,87.20
2019-03-04T21:58:12.561Z,87.00
2019-03-04T22:00:42.335Z,86.90
2019-03-04T22:03:18.991Z,86.90
2019-03-04T22:05:50.474Z,87.80
2019-03-04T22:08:17.322Z,88.30
2019-03-04T22:10:45.139Z,88.20
2019-03-04T22:13:14.165Z,89.80
2019-03-04T22:15:42.001Z,89.10
2019-03-04T22:18:09.938Z,89.00
2019-03-04T22:20:37.799Z,89.20
2019-03-04T22:23:05.600Z,89.10
2019-03-04T22:25:33.422Z,88.40
2019-03-04T22:28:01.509Z,88.10
2019-03-04T22:30:29.347Z,88.00
2019-03-04T22:32:57.243Z,87.60
2019-03-04T22:35:24.998Z,87.90
2019-03-04T22:37:53.734Z,87.30
2019-03-04T22:40:21.560Z,87.20
2019-03-04T22:42:49.458Z,87.70
2019-03-04T22:45:17.687Z,85.70
2019-03-04T22:47:45.947Z,84.50
2019-03-04T22:50:14.907Z,84.80
2019-03-04T22:52:43.726Z,84.40
2019-03-04T22:55:14.250Z,83.80
2019-03-04T22:57:42.249Z,83.30
2019-03-04T23:01:18.095Z,84.30
2019-03-04T23:03:47.518Z,84.10
2019-03-04T23:06:19.232Z,84.00
2019-03-04T23:08:47.097Z,85.10
2019-03-04T23:11:15.102Z,85.60
2019-03-04T23:13:52.556Z,86.20
2019-03-04T23:16:23.072Z,86.40
2019-03-04T23:18:50.793Z,87.00
2019-03-04T23:21:18.553Z,86.60
2019-03-04T23:23:46.239Z,86.20
2019-03-04T23:26:14.108Z,86.10
2019-03-04T23:28:41.886Z,85.70
2019-03-04T23:31:09.789Z,85.40
2019-03-04T23:33:37.487Z,84.70
2019-03-04T23:36:05.259Z,85.00
2019-03-04T23:38:33.013Z,85.10
2019-03-04T23:41:01.095Z,84.70
2019-03-04T23:43:30.845Z,84.00
2019-03-04T23:45:58.649Z,84.00
2019-03-04T23:48:26.390Z,83.70
2019-03-04T23:50:54.246Z,83.40
2019-03-04T23:53:21.926Z,83.70
2019-03-04T23:55:49.798Z,83.60
2019-03-04T23:58:17.546Z,82.90
